Time;durP1;ratioP1;P1;durP2;ratioP2;P2;SDS_P1;SDS_P2;PMS_P1;PMS_P2;Temp;Humidity;BMP_temperature;BMP_pressure;BME280_temperature;BME280_humidity;BME280_pressure;Samples;Min_cycle;Max_cycle;Signal;HPM_P1;HPM_P2
2022/05/13 00:01:34;;;;;;;6.80;5.30;;;18.50;91.90;;;;;;5051925;28;20986;-65
2022/05/13 00:04:03;;;;;;;6.50;4.80;;;18.50;91.40;;;;;;5052445;28;20840;-64
2022/05/13 00:06:30;;;;;;;5.67;5.00;;;18.50;91.50;;;;;;5052171;28;20444;-64
2022/05/13 00:08:57;;;;;;;6.43;4.53;;;18.50;91.50;;;;;;5052506;28;20992;-65
2022/05/13 00:11:24;;;;;;;6.03;5.13;;;18.50;91.60;;;;;;5052088;28;20475;-64
2022/05/13 00:13:51;;;;;;;5.03;4.50;;;18.50;91.40;;;;;;5052073;28;20510;-64
2022/05/13 00:16:19;;;;;;;7.47;4.67;;;18.50;91.50;;;;;;5052047;28;20487;-63
2022/05/13 00:18:46;;;;;;;8.03;5.20;;;18.40;91.50;;;;;;5052327;28;20471;-64
2022/05/13 00:21:15;;;;;;;8.23;4.90;;;18.40;91.80;;;;;;5051717;28;21052;-63
2022/05/13 00:23:42;;;;;;;6.83;6.13;;;18.40;91.90;;;;;;5052325;28;20771;-64
2022/05/13 00:26:09;;;;;;;12.57;7.40;;;18.40;92.00;;;;;;5051687;28;20919;-65
2022/05/13 00:28:36;;;;;;;8.80;6.57;;;18.50;92.50;;;;;;5052340;28;20470;-64
2022/05/13 00:31:04;;;;;;;7.60;6.10;;;18.50;92.30;;;;;;5051986;28;20473;-64
2022/05/13 00:33:32;;;;;;;9.23;6.60;;;18.40;92.30;;;;;;5052204;28;20480;-63
2022/05/13 00:35:59;;;;;;;7.53;5.40;;;18.30;92.70;;;;;;5051572;28;20444;-64
2022/05/13 00:38:28;;;;;;;10.60;7.20;;;18.30;92.60;;;;;;5052221;28;20443;-63
2022/05/13 00:40:55;;;;;;;6.93;5.00;;;18.20;92.60;;;;;;5051177;28;20879;-64
2022/05/13 00:43:42;;;;;;;6.97;4.63;;;18.20;92.60;;;;;;5052006;28;20437;-65
2022/05/13 00:46:09;;;;;;;5.97;5.33;;;18.20;92.70;;;;;;5051406;28;20448;-64
2022/05/13 00:48:37;;;;;;;7.00;5.77;;;18.10;92.40;;;;;;5052273;28;20441;-64
2022/05/13 00:51:05;;;;;;;11.23;6.00;;;18.20;92.80;;;;;;5051342;28;20437;-64
2022/05/13 00:53:35;;;;;;;7.83;5.23;;;18.20;92.60;;;;;;5052336;28;20481;-64
2022/05/13 00:56:02;;;;;;;7.40;5.40;;;18.30;92.50;;;;;;5051564;28;20498;-64
2022/05/13 00:58:30;;;;;;;6.53;5.50;;;18.30;92.30;;;;;;5051963;28;20494;-64
2022/05/13 01:00:57;;;;;;;6.87;5.90;;;18.40;92.40;;;;;;5051604;28;20550;-63
2022/05/13 01:03:24;;;;;;;6.67;5.50;;;18.40;92.30;;;;;;5051879;28;20441;-63
2022/05/13 01:05:57;;;;;;;11.20;5.70;;;18.50;92.00;;;;;;5051540;28;20482;-64
2022/05/13 01:08:24;;;;;;;6.87;5.77;;;18.50;91.90;;;;;;5051952;28;20836;-63
2022/05/13 01:10:56;;;;;;;11.43;6.97;;;18.50;91.90;;;;;;5051634;28;20898;-63
2022/05/13 01:13:28;;;;;;;5.60;5.00;;;18.60;91.90;;;;;;5052030;28;20786;-64
2022/05/13 01:15:55;;;;;;;6.97;6.00;;;18.60;91.80;;;;;;5051867;28;20829;-63
2022/05/13 01:18:27;;;;;;;7.90;5.07;;;18.60;91.80;;;;;;5052003;28;20490;-64
2022/05/13 01:20:55;;;;;;;5.37;4.83;;;18.60;91.70;;;;;;5051174;28;20476;-64
2022/05/13 01:23:27;;;;;;;8.30;5.70;;;18.60;90.80;;;;;;5051579;28;20476;-64
2022/05/13 01:25:58;;;;;;;7.20;5.70;;;18.70;90.60;;;;;;5051594;28;20943;-65
2022/05/13 01:28:29;;;;;;;6.73;5.10;;;18.70;90.00;;;;;;5051816;28;20514;-64
2022/05/13 01:30:59;;;;;;;6.93;4.40;;;18.70;89.20;;;;;;5051227;28;20444;-65
2022/05/13 01:33:27;;;;;;;7.23;4.53;;;18.70;88.50;;;;;;5051624;28;20458;-64
2022/05/13 01:35:56;;;;;;;10.13;5.70;;;18.80;88.10;;;;;;5055160;28;20498;-64
2022/05/13 01:38:27;;;;;;;5.87;4.00;;;18.80;86.70;;;;;;5055443;28;20468;-63
2022/05/13 01:40:54;;;;;;;5.07;4.20;;;18.70;86.30;;;;;;5054970;28;20484;-63
2022/05/13 01:43:22;;;;;;;6.83;3.93;;;18.80;85.90;;;;;;5054780;28;20862;-64
2022/05/13 01:45:50;;;;;;;7.60;4.67;;;18.80;85.60;;;;;;5054976;28;20535;-64
2022/05/13 01:48:18;;;;;;;5.43;4.23;;;18.80;85.20;;;;;;5054723;28;21597;-64
2022/05/13 01:50:45;;;;;;;9.03;5.07;;;18.80;85.60;;;;;;5054985;28;20453;-64
2022/05/13 01:53:12;;;;;;;5.07;4.53;;;18.80;85.40;;;;;;5054961;28;20444;-64
2022/05/13 01:55:42;;;;;;;5.37;4.87;;;18.80;85.20;;;;;;5054818;28;20433;-64
2022/05/13 01:58:11;;;;;;;7.17;5.13;;;18.80;85.00;;;;;;5054792;28;20437;-64
2022/05/13 02:00:39;;;;;;;5.60;4.67;;;18.80;85.20;;;;;;5054033;28;20433;-63
2022/05/13 02:05:51;;;;;;;5.17;4.07;;;18.90;85.50;;;;;;5054227;28;20424;-69
2022/05/13 02:08:18;;;;;;;7.80;5.90;;;18.90;85.60;;;;;;5054378;28;20908;-64
2022/05/13 02:10:47;;;;;;;6.10;5.03;;;18.90;85.40;;;;;;5054356;28;21015;-64
2022/05/13 02:13:15;;;;;;;5.37;4.50;;;18.90;84.80;;;;;;5054051;28;20465;-64
2022/05/13 02:15:43;;;;;;;8.03;4.83;;;18.90;84.70;;;;;;5054415;28;20448;-64
2022/05/13 02:18:11;;;;;;;5.07;4.50;;;18.90;84.70;;;;;;5053675;28;20503;-64
2022/05/13 02:20:39;;;;;;;5.80;4.07;;;18.90;84.40;;;;;;5053966;28;20989;-64
2022/05/13 02:23:08;;;;;;;7.00;4.23;;;18.90;84.50;;;;;;5054015;28;20849;-64
2022/05/13 02:25:35;;;;;;;8.53;4.83;;;18.90;84.80;;;;;;5053914;28;20449;-63
2022/05/13 02:28:05;;;;;;;6.87;4.90;;;18.80;84.40;;;;;;5054048;28;20441;-64
2022/05/13 02:30:33;;;;;;;7.13;4.80;;;18.80;84.70;;;;;;5053606;28;20437;-64
2022/05/13 02:33:00;;;;;;;5.00;4.40;;;18.80;84.50;;;;;;5054267;28;20445;-64
2022/05/13 02:35:28;;;;;;;11.80;5.77;;;18.80;84.30;;;;;;5054175;28;20433;-64
2022/05/13 02:37:56;;;;;;;8.00;6.97;;;18.80;84.80;;;;;;5054074;28;20938;-64
2022/05/13 02:41:11;;;;;;;9.37;5.90;;;18.80;84.50;;;;;;5053249;28;20433;-63
2022/05/13 02:43:13;;;;;;;7.60;5.43;;;18.80;84.30;;;;;;5053797;28;20428;-64
2022/05/13 02:45:41;;;;;;;6.67;5.20;;;18.90;84.50;;;;;;5052383;28;20516;-64
2022/05/13 02:48:08;;;;;;;12.70;5.23;;;18.90;84.90;;;;;;5054045;28;20469;-64
2022/05/13 02:50:37;;;;;;;8.27;4.87;;;18.80;85.20;;;;;;5053386;28;20437;-64
2022/05/13 02:53:04;;;;;;;8.33;5.77;;;18.80;85.50;;;;;;5053875;28;20491;-64
2022/05/13 02:55:32;;;;;;;6.43;4.40;;;18.80;85.50;;;;;;5053159;28;20433;-64
2022/05/13 02:57:59;;;;;;;6.60;4.83;;;18.80;85.40;;;;;;5053549;28;20441;-64
2022/05/13 03:00:27;;;;;;;5.40;4.90;;;18.80;85.10;;;;;;5053275;28;21002;-64
2022/05/13 03:02:54;;;;;;;5.23;4.50;;;18.80;85.40;;;;;;5053233;28;20841;-64
2022/05/13 03:05:21;;;;;;;5.70;5.10;;;18.80;85.50;;;;;;5053296;28;20437;-64
2022/05/13 03:07:50;;;;;;;5.00;4.03;;;18.80;85.20;;;;;;5053264;28;20790;-64
2022/05/13 03:10:17;;;;;;;6.30;4.57;;;18.80;85.10;;;;;;5053334;28;20796;-64
2022/05/13 03:12:44;;;;;;;5.10;4.27;;;18.80;85.00;;;;;;5053243;28;20425;-64
2022/05/13 03:15:13;;;;;;;7.10;5.03;;;18.70;84.90;;;;;;5053448;28;20463;-64
2022/05/13 03:17:42;;;;;;;7.20;4.47;;;18.70;84.90;;;;;;5052976;28;20441;-64
2022/05/13 03:20:14;;;;;;;12.87;4.83;;;18.70;85.00;;;;;;5053197;28;20501;-64
2022/05/13 03:22:41;;;;;;;7.70;5.20;;;18.80;84.90;;;;;;5053010;28;20495;-63
2022/05/13 03:25:09;;;;;;;4.90;4.37;;;18.70;84.30;;;;;;5053356;28;20440;-64
2022/05/13 03:27:36;;;;;;;9.03;5.47;;;18.70;83.80;;;;;;5052553;28;20441;-64
2022/05/13 03:30:05;;;;;;;10.87;5.37;;;18.70;83.50;;;;;;5053350;28;20437;-64
2022/05/13 03:32:33;;;;;;;6.20;4.47;;;18.60;84.00;;;;;;5052842;28;20441;-64
2022/05/13 03:35:01;;;;;;;11.07;5.43;;;18.50;84.60;;;;;;5052927;28;20441;-63
2022/05/13 03:37:28;;;;;;;5.50;4.50;;;18.40;85.00;;;;;;5052745;28;20437;-64
2022/05/13 03:39:55;;;;;;;7.83;4.33;;;18.30;85.60;;;;;;5052734;28;20445;-64
2022/05/13 03:42:23;;;;;;;7.00;5.07;;;18.30;86.30;;;;;;5052369;28;20546;-64
2022/05/13 03:44:50;;;;;;;5.20;3.97;;;18.30;86.30;;;;;;5052914;28;20437;-64
2022/05/13 03:47:18;;;;;;;6.10;5.10;;;18.30;86.80;;;;;;5052246;28;20464;-64
2022/05/13 03:49:45;;;;;;;5.13;4.20;;;18.30;87.00;;;;;;5052508;28;20920;-63
2022/05/13 03:52:15;;;;;;;5.70;4.20;;;18.40;86.90;;;;;;5052730;28;20864;-63
2022/05/13 03:54:43;;;;;;;6.97;4.33;;;18.40;86.40;;;;;;5052338;28;20437;-64
2022/05/13 03:57:10;;;;;;;4.53;4.13;;;18.40;86.30;;;;;;5052392;28;20443;-64
2022/05/13 03:59:37;;;;;;;6.73;4.03;;;18.50;85.90;;;;;;5052445;28;20445;-64
2022/05/13 04:02:05;;;;;;;7.07;4.73;;;18.50;84.70;;;;;;5052655;28;20835;-64
2022/05/13 04:08:56;;;;;;;6.20;3.67;;;18.40;84.50;;;;;;5052295;28;20840;-64
2022/05/13 04:10:08;;;;;;;7.03;4.50;;;18.40;85.10;;;;;;5032881;28;20464;-64
2022/05/13 04:18:05;;;;;;;7.20;5.17;;;18.50;84.90;;;;;;5051852;28;20551;-64
2022/05/13 04:20:34;;;;;;;7.83;6.13;;;18.50;84.60;;;;;;5052761;28;20531;-64
2022/05/13 04:23:03;;;;;;;8.30;5.43;;;18.40;84.60;;;;;;5052041;28;20476;-64
2022/05/13 04:25:30;;;;;;;7.97;4.50;;;18.30;84.90;;;;;;5052128;28;20444;-65
2022/05/13 04:27:57;;;;;;;5.33;4.40;;;18.20;85.20;;;;;;5051182;28;20445;-65
2022/05/13 04:30:24;;;;;;;8.47;4.73;;;18.20;84.90;;;;;;5052919;28;20433;-64
2022/05/13 04:32:51;;;;;;;4.70;4.20;;;18.30;85.40;;;;;;5052584;28;20433;-64
2022/05/13 04:35:18;;;;;;;4.50;4.00;;;18.30;84.90;;;;;;5051612;28;21025;-65
2022/05/13 04:37:45;;;;;;;5.10;4.60;;;18.20;85.40;;;;;;5051916;28;20450;-64
2022/05/13 04:40:14;;;;;;;4.70;3.23;;;18.20;85.30;;;;;;5052843;28;20441;-65
2022/05/13 04:42:52;;;;;;;5.00;3.13;;;18.20;85.10;;;;;;5052722;28;20515;-64
2022/05/13 04:45:24;;;;;;;3.97;3.43;;;18.20;84.60;;;;;;5052875;28;20491;-64
2022/05/13 04:50:43;;;;;;;5.30;3.80;;;18.20;82.80;;;;;;5052499;28;20467;-67
2022/05/13 04:53:11;;;;;;;4.33;3.20;;;18.30;82.90;;;;;;5052746;28;20475;-64
2022/05/13 04:55:40;;;;;;;5.00;3.13;;;18.30;82.90;;;;;;5052654;28;20515;-64
2022/05/13 04:58:07;;;;;;;5.30;3.50;;;18.30;82.70;;;;;;5052629;28;20838;-64
2022/05/13 05:00:34;;;;;;;8.00;3.70;;;18.30;82.60;;;;;;5052486;28;20449;-64
2022/05/13 05:03:01;;;;;;;5.97;4.00;;;18.40;83.00;;;;;;5052747;28;21037;-64
2022/05/13 05:05:28;;;;;;;5.30;3.50;;;18.50;83.80;;;;;;5040864;28;20806;-70
2022/05/13 05:07:55;;;;;;;4.03;3.57;;;18.50;84.30;;;;;;5036258;28;20532;-64
2022/05/13 05:10:22;;;;;;;8.03;3.50;;;18.60;84.70;;;;;;5052646;28;20520;-64
2022/05/13 05:12:54;;;;;;;4.23;3.30;;;18.60;84.70;;;;;;5053757;28;20520;-64
2022/05/13 05:15:21;;;;;;;4.17;3.37;;;18.60;84.20;;;;;;5052696;28;20516;-69
2022/05/13 05:17:48;;;;;;;4.83;3.50;;;18.60;84.80;;;;;;5052601;28;20440;-64
2022/05/13 05:20:15;;;;;;;5.20;3.73;;;18.60;86.10;;;;;;5053523;28;20436;-65
2022/05/13 05:22:44;;;;;;;4.40;3.57;;;18.50;86.00;;;;;;5053991;28;20484;-64
2022/05/13 05:25:11;;;;;;;3.80;3.40;;;18.50;86.40;;;;;;5051867;28;20842;-64
2022/05/13 05:27:39;;;;;;;8.90;4.10;;;18.50;87.20;;;;;;5052840;28;20441;-64
2022/05/13 05:30:09;;;;;;;4.87;3.83;;;18.60;87.30;;;;;;5053294;28;20444;-64
2022/05/13 05:32:37;;;;;;;5.53;4.43;;;18.60;88.40;;;;;;5054024;28;20475;-65
2022/05/13 05:35:06;;;;;;;6.90;4.90;;;18.60;87.70;;;;;;5052632;28;20495;-65
2022/05/13 05:37:34;;;;;;;6.07;4.23;;;18.60;88.10;;;;;;5052360;28;20531;-64
2022/05/13 05:40:01;;;;;;;5.23;3.80;;;18.60;89.80;;;;;;5051820;28;20441;-64
2022/05/13 05:42:28;;;;;;;5.97;4.30;;;18.50;89.30;;;;;;5053902;28;20480;-64
2022/05/13 05:44:55;;;;;;;6.50;4.27;;;18.50;90.10;;;;;;5052804;28;20441;-64
2022/05/13 05:47:24;;;;;;;7.00;4.47;;;18.50;90.10;;;;;;5053418;28;20804;-64
2022/05/13 05:49:51;;;;;;;5.73;3.93;;;18.60;88.50;;;;;;5052239;28;21148;-64
2022/05/13 05:52:18;;;;;;;4.97;4.20;;;18.50;88.50;;;;;;5052964;28;20866;-65
2022/05/13 05:57:30;;;;;;;7.70;6.20;;;18.50;90.10;;;;;;5051737;28;20439;-64
2022/05/13 05:59:57;;;;;;;10.50;6.03;;;18.40;89.40;;;;;;5049149;28;20477;-64
2022/05/13 06:02:25;;;;;;;7.03;4.23;;;18.40;90.40;;;;;;5045730;28;20585;-64
2022/05/13 06:04:52;;;;;;;6.27;4.60;;;18.40;90.80;;;;;;5053518;28;20973;-64
2022/05/13 06:07:19;;;;;;;6.00;4.23;;;18.40;90.70;;;;;;5051140;28;20440;-64
2022/05/13 06:09:47;;;;;;;7.83;4.13;;;18.40;91.20;;;;;;5052478;28;20472;-63
2022/05/13 06:12:15;;;;;;;5.23;4.03;;;18.30;91.10;;;;;;5050305;28;20460;-64
2022/05/13 06:14:42;;;;;;;6.93;2.97;;;18.30;91.00;;;;;;5052803;28;20470;-63
2022/05/13 06:17:09;;;;;;;3.87;3.47;;;18.30;90.90;;;;;;5051031;28;20885;-64
2022/05/13 06:19:38;;;;;;;7.03;4.40;;;18.30;90.60;;;;;;5052456;28;20514;-66
2022/05/13 06:22:06;;;;;;;6.13;4.90;;;18.40;90.50;;;;;;5051603;28;21416;-65
2022/05/13 06:24:33;;;;;;;4.83;4.43;;;18.40;90.40;;;;;;5052701;28;20441;-65
2022/05/13 06:27:00;;;;;;;5.13;4.53;;;18.40;90.50;;;;;;5051012;28;20499;-64
2022/05/13 06:29:27;;;;;;;4.43;3.73;;;18.40;90.20;;;;;;5050100;28;20535;-64
2022/05/13 06:31:54;;;;;;;5.50;4.73;;;18.40;90.20;;;;;;5053840;28;20916;-67
2022/05/13 06:34:23;;;;;;;9.70;4.93;;;18.40;90.10;;;;;;5055050;28;20437;-64
2022/05/13 06:36:51;;;;;;;7.50;4.80;;;18.30;90.30;;;;;;5054717;28;20440;-64
2022/05/13 06:39:18;;;;;;;8.83;4.83;;;18.40;90.50;;;;;;5054872;28;20896;-64
2022/05/13 06:41:46;;;;;;;4.20;3.33;;;18.60;91.20;;;;;;5054888;28;20523;-64
2022/05/13 06:44:15;;;;;;;5.70;4.50;;;18.70;90.10;;;;;;5054869;28;20531;-64
2022/05/13 06:46:42;;;;;;;7.10;4.90;;;18.90;89.30;;;;;;5054390;28;20511;-64
2022/05/13 06:49:11;;;;;;;6.17;5.20;;;19.10;89.50;;;;;;5054691;28;20465;-64
2022/05/13 06:51:39;;;;;;;5.03;3.67;;;19.30;87.30;;;;;;5054505;28;20436;-64
2022/05/13 06:54:09;;;;;;;4.57;3.50;;;19.30;86.00;;;;;;5054467;28;20444;-65
2022/05/13 06:56:38;;;;;;;4.53;3.87;;;19.40;86.40;;;;;;5054451;28;20907;-64
2022/05/13 06:59:05;;;;;;;6.87;4.23;;;19.60;86.00;;;;;;5053765;28;20437;-64
2022/05/13 07:01:32;;;;;;;5.00;4.07;;;19.90;86.20;;;;;;5054338;28;20449;-64
2022/05/13 07:03:59;;;;;;;5.73;4.67;;;20.10;86.40;;;;;;5053724;28;20987;-65
2022/05/13 07:06:26;;;;;;;6.60;3.77;;;20.30;85.60;;;;;;5054448;28;20527;-64
2022/05/13 07:08:53;;;;;;;4.20;3.60;;;20.50;83.60;;;;;;5054046;28;20441;-64
2022/05/13 07:11:21;;;;;;;6.97;4.00;;;20.60;82.60;;;;;;5053951;28;20437;-64
2022/05/13 07:13:48;;;;;;;7.53;3.43;;;20.60;80.00;;;;;;5053930;28;20520;-64
2022/05/13 07:16:15;;;;;;;7.20;4.70;;;20.70;80.90;;;;;;5053907;28;20527;-64
2022/05/13 07:18:42;;;;;;;4.13;3.70;;;20.90;78.40;;;;;;5053998;28;21007;-64
2022/05/13 07:21:09;;;;;;;5.93;3.83;;;20.90;77.00;;;;;;5053791;28;20447;-64
2022/05/13 07:23:36;;;;;;;6.33;4.00;;;21.00;77.30;;;;;;5053630;28;20476;-65
2022/05/13 07:26:03;;;;;;;5.07;4.00;;;21.20;75.10;;;;;;5053688;28;20443;-64
2022/05/13 07:28:31;;;;;;;7.80;3.80;;;21.20;73.10;;;;;;5053505;28;20519;-65
2022/05/13 07:31:00;;;;;;;7.13;4.37;;;21.10;71.60;;;;;;5053154;28;21006;-64
2022/05/13 07:33:29;;;;;;;9.87;4.13;;;21.10;72.20;;;;;;5053416;28;20437;-65
2022/05/13 07:35:56;;;;;;;5.83;4.07;;;21.10;73.90;;;;;;5053456;28;20482;-64
2022/05/13 07:38:23;;;;;;;5.50;4.10;;;21.30;72.60;;;;;;5053580;28;20433;-64
2022/05/13 07:43:36;;;;;;;4.30;3.50;;;21.60;71.20;;;;;;5053439;28;20479;-64
2022/05/13 07:46:05;;;;;;;4.47;3.73;;;21.60;71.30;;;;;;5053284;28;20528;-64
2022/05/13 07:48:32;;;;;;;6.57;4.30;;;21.70;72.70;;;;;;5053176;28;20472;-64
2022/05/13 07:50:59;;;;;;;4.00;3.27;;;21.80;72.10;;;;;;5053486;28;20523;-64
2022/05/13 07:53:26;;;;;;;4.97;4.07;;;21.80;71.20;;;;;;5053364;28;20532;-64
2022/05/13 07:55:53;;;;;;;5.20;4.20;;;21.90;68.30;;;;;;5053424;28;20452;-64
2022/05/13 07:58:20;;;;;;;4.40;3.40;;;21.80;68.40;;;;;;5053127;28;20468;-64
2022/05/13 08:00:48;;;;;;;5.30;3.37;;;21.70;68.20;;;;;;5052974;28;20447;-64
2022/05/13 08:03:17;;;;;;;4.63;3.90;;;21.50;69.90;;;;;;5052779;28;21061;-64
2022/05/13 08:05:46;;;;;;;4.90;3.60;;;21.50;71.20;;;;;;5053052;28;20476;-64
2022/05/13 08:08:15;;;;;;;4.43;3.83;;;21.70;72.80;;;;;;5053057;28;20445;-64
2022/05/13 08:10:46;;;;;;;7.07;4.13;;;21.90;75.20;;;;;;5052920;28;20515;-64
2022/05/13 08:13:13;;;;;;;5.67;4.30;;;22.20;74.20;;;;;;5052828;28;20528;-64
2022/05/13 08:15:40;;;;;;;4.20;3.50;;;22.40;71.50;;;;;;5052925;28;20524;-64
2022/05/13 08:18:09;;;;;;;5.57;3.50;;;22.60;70.60;;;;;;5052762;28;20539;-64
2022/05/13 08:20:36;;;;;;;5.37;2.80;;;22.80;68.80;;;;;;5052702;28;20519;-64
2022/05/13 08:23:04;;;;;;;5.30;3.80;;;22.90;68.30;;;;;;5052651;28;20487;-64
2022/05/13 08:25:31;;;;;;;5.57;3.73;;;23.20;68.80;;;;;;5053111;28;20437;-64
2022/05/13 08:27:58;;;;;;;5.40;4.10;;;23.40;68.80;;;;;;5052919;28;20444;-64
2022/05/13 08:30:26;;;;;;;4.70;3.43;;;23.40;65.80;;;;;;5052769;28;20532;-64
2022/05/13 08:32:53;;;;;;;4.50;3.83;;;23.50;66.00;;;;;;5052644;28;20440;-64
2022/05/13 08:35:21;;;;;;;7.10;4.33;;;23.70;67.00;;;;;;5052854;28;20527;-64
2022/05/13 08:37:50;;;;;;;8.67;4.10;;;23.70;65.20;;;;;;5052794;28;20433;-64
2022/05/13 08:40:26;;;;;;;5.23;3.70;;;23.60;64.80;;;;;;5052737;28;20445;-64
2022/05/13 08:42:54;;;;;;;5.23;3.83;;;23.40;64.00;;;;;;5052925;28;20480;-64
2022/05/13 08:45:22;;;;;;;5.30;4.20;;;23.20;64.10;;;;;;5056163;28;20449;-64
2022/05/13 08:47:54;;;;;;;3.90;3.47;;;23.00;65.70;;;;;;5056656;28;20745;-64
2022/05/13 08:50:30;;;;;;;5.93;3.50;;;22.90;68.10;;;;;;5056661;28;20455;-64
2022/05/13 08:53:11;;;;;;;10.87;3.80;;;22.70;69.60;;;;;;5057021;28;20455;-64
2022/05/13 08:55:43;;;;;;;5.50;3.80;;;22.60;68.80;;;;;;5056407;28;20455;-64
2022/05/13 08:58:16;;;;;;;8.63;3.77;;;22.50;68.60;;;;;;5056638;28;20838;-64
2022/05/13 09:00:45;;;;;;;6.03;3.20;;;22.40;68.70;;;;;;5056671;28;20491;-64
2022/05/13 09:03:24;;;;;;;4.80;3.20;;;22.40;70.80;;;;;;5056221;28;20559;-64
2022/05/13 09:06:02;;;;;;;4.47;3.30;;;22.50;73.10;;;;;;5056299;28;21004;-63
2022/05/13 09:08:29;;;;;;;4.30;3.33;;;22.70;72.50;;;;;;5056430;28;20855;-65
2022/05/13 09:11:07;;;;;;;6.13;3.27;;;22.90;72.00;;;;;;5056560;28;20439;-64
2022/05/13 09:13:42;;;;;;;4.30;2.93;;;23.20;70.90;;;;;;5056595;28;20553;-65
2022/05/13 09:16:10;;;;;;;6.57;3.87;;;23.40;68.60;;;;;;5056150;28;20526;-64
2022/05/13 09:18:42;;;;;;;4.30;3.40;;;23.60;66.30;;;;;;5056099;28;20535;-64
2022/05/13 09:21:16;;;;;;;4.80;3.23;;;23.60;65.20;;;;;;5056346;28;20939;-65
2022/05/13 09:23:43;;;;;;;4.30;2.83;;;23.50;63.50;;;;;;5056113;28;20523;-64
2022/05/13 09:26:14;;;;;;;5.37;3.80;;;23.40;62.40;;;;;;5055746;28;20931;-64
2022/05/13 09:29:04;;;;;;;4.00;2.70;;;23.30;62.60;;;;;;5056120;28;20963;-63
2022/05/13 09:31:33;;;;;;;6.30;3.83;;;23.20;63.70;;;;;;5055859;28;20473;-65
2022/05/13 09:34:00;;;;;;;5.97;3.33;;;23.10;63.20;;;;;;5056188;28;20465;-64
2022/05/13 09:36:35;;;;;;;4.57;2.83;;;23.10;62.60;;;;;;5055894;28;20491;-65
2022/05/13 09:39:18;;;;;;;4.23;3.10;;;23.10;63.40;;;;;;5055976;28;20432;-64
2022/05/13 09:41:46;;;;;;;4.07;2.77;;;23.30;64.10;;;;;;5056051;28;20472;-64
2022/05/13 09:44:14;;;;;;;4.70;2.87;;;23.30;62.80;;;;;;5055594;28;21038;-64
2022/05/13 09:46:43;;;;;;;4.60;2.87;;;23.40;62.70;;;;;;5055638;28;20548;-64
2022/05/13 09:49:17;;;;;;;4.30;2.77;;;23.60;63.90;;;;;;5055699;28;20838;-64
2022/05/13 09:51:55;;;;;;;4.80;4.10;;;23.80;64.20;;;;;;5055720;28;20460;-64
2022/05/13 09:54:25;;;;;;;6.33;4.47;;;23.90;62.50;;;;;;5055195;28;20444;-64
2022/05/13 09:56:56;;;;;;;4.43;3.50;;;23.90;59.90;;;;;;5055656;28;20827;-64
2022/05/13 09:59:28;;;;;;;4.77;3.33;;;23.90;59.90;;;;;;5054953;28;20444;-64
2022/05/13 10:01:55;;;;;;;5.80;3.73;;;23.90;59.60;;;;;;5055587;28;20445;-64
2022/05/13 10:04:24;;;;;;;5.50;3.87;;;23.80;59.80;;;;;;5055228;28;20978;-64
2022/05/13 10:07:05;;;;;;;6.83;3.43;;;23.60;59.80;;;;;;5055365;28;20437;-64
2022/05/13 10:15:25;;;;;;;6.23;3.77;;;23.20;61.00;;;;;;5055408;28;20432;-64
2022/05/13 10:17:57;;;;;;;4.47;3.90;;;23.10;61.00;;;;;;5055389;28;20437;-64
2022/05/13 10:20:30;;;;;;;8.40;3.43;;;23.00;61.40;;;;;;5055163;28;20471;-64
2022/05/13 10:23:12;;;;;;;4.73;3.37;;;22.90;61.70;;;;;;5055183;28;20495;-65
2022/05/13 10:26:02;;;;;;;5.17;3.20;;;22.80;62.30;;;;;;5054876;28;20425;-63
2022/05/13 10:28:38;;;;;;;5.63;5.00;;;22.80;63.20;;;;;;5054649;28;20452;-64
2022/05/13 10:31:10;;;;;;;10.97;4.83;;;22.70;63.10;;;;;;5055133;28;20428;-64
2022/05/13 10:33:42;;;;;;;5.43;3.80;;;22.70;62.80;;;;;;5054245;28;20515;-64
2022/05/13 10:36:13;;;;;;;6.73;4.40;;;22.70;63.20;;;;;;5054044;28;20927;-64
2022/05/13 10:38:49;;;;;;;5.17;4.20;;;22.60;63.10;;;;;;5054741;28;20525;-63
2022/05/13 10:41:29;;;;;;;6.90;4.43;;;22.50;62.80;;;;;;5054581;28;20630;-63
2022/05/13 10:44:01;;;;;;;4.43;3.93;;;22.40;63.10;;;;;;5054757;28;20553;-63
2022/05/13 10:46:35;;;;;;;5.03;3.20;;;22.20;63.00;;;;;;5054336;28;20461;-65
2022/05/13 10:49:02;;;;;;;8.27;3.90;;;22.00;62.80;;;;;;5054668;28;20866;-63
2022/05/13 10:51:35;;;;;;;5.43;3.80;;;21.90;63.20;;;;;;5054505;28;20527;-65
2022/05/13 10:54:33;;;;;;;11.93;4.50;;;21.90;64.40;;;;;;5054515;28;20463;-64
2022/05/13 10:57:10;;;;;;;5.00;3.47;;;21.90;65.20;;;;;;5041890;28;20476;-65
2022/05/13 10:59:48;;;;;;;6.33;4.20;;;21.70;65.10;;;;;;5054463;28;20440;-64
2022/05/13 11:02:42;;;;;;;8.37;4.50;;;21.60;64.90;;;;;;5054255;28;20523;-64
2022/05/13 11:05:15;;;;;;;5.53;3.60;;;21.50;64.50;;;;;;5053947;28;20571;-65
2022/05/13 11:07:48;;;;;;;10.30;3.90;;;21.40;64.80;;;;;;5052930;28;20520;-63
2022/05/13 11:10:23;;;;;;;4.77;3.20;;;21.30;64.80;;;;;;5053616;28;20471;-64
2022/05/13 11:12:59;;;;;;;4.10;3.30;;;21.30;64.90;;;;;;5053901;28;20468;-64
2022/05/13 11:15:35;;;;;;;5.00;3.27;;;21.30;65.10;;;;;;5053640;28;20483;-64
2022/05/13 11:18:13;;;;;;;6.13;3.10;;;21.30;64.70;;;;;;5053773;28;20491;-68
2022/05/13 11:20:56;;;;;;;3.17;2.63;;;21.30;64.80;;;;;;5053285;28;20856;-64
2022/05/13 11:23:34;;;;;;;2.87;1.77;;;21.30;64.80;;;;;;5054011;28;20532;-64
2022/05/13 11:26:17;;;;;;;3.80;2.07;;;21.20;64.70;;;;;;5053234;28;20532;-65
2022/05/13 11:29:03;;;;;;;3.27;1.90;;;21.20;65.30;;;;;;5053841;28;20455;-64
2022/05/13 11:32:04;;;;;;;4.50;1.97;;;21.20;64.90;;;;;;5053497;28;20463;-64
2022/05/13 11:34:46;;;;;;;4.20;1.33;;;21.20;66.30;;;;;;5033628;28;20437;-64
2022/05/13 11:37:15;;;;;;;3.53;1.77;;;21.20;66.10;;;;;;5053131;28;20440;-64
2022/05/13 11:39:55;;;;;;;2.23;1.43;;;21.20;66.20;;;;;;5053960;28;20433;-64
2022/05/13 11:42:36;;;;;;;2.90;1.50;;;21.30;66.30;;;;;;5033679;28;20477;-63
2022/05/13 11:45:47;;;;;;;2.20;1.40;;;21.30;66.20;;;;;;5034723;28;20985;-64
2022/05/13 11:48:21;;;;;;;2.70;1.37;;;21.40;66.00;;;;;;5047921;28;20471;-64
2022/05/13 11:50:49;;;;;;;2.53;1.73;;;21.60;66.60;;;;;;5052701;28;20443;-65
2022/05/13 11:53:47;;;;;;;2.33;1.43;;;21.90;66.90;;;;;;5052566;28;20524;-65
2022/05/13 11:56:20;;;;;;;4.90;1.80;;;22.40;67.20;;;;;;5053181;28;20472;-63
2022/05/13 11:58:54;;;;;;;2.73;1.50;;;23.00;66.10;;;;;;5053468;28;20519;-64
2022/05/13 12:01:53;;;;;;;2.13;1.33;;;23.50;63.30;;;;;;5053409;28;20486;-65
2022/05/13 12:04:31;;;;;;;3.70;1.57;;;23.80;60.20;;;;;;5053257;28;20971;-64
2022/05/13 12:07:00;;;;;;;5.70;1.60;;;23.90;60.50;;;;;;5053032;28;20998;-65
2022/05/13 12:09:32;;;;;;;3.40;1.80;;;23.90;59.10;;;;;;5052946;28;20962;-64
2022/05/13 12:12:09;;;;;;;3.93;2.00;;;23.70;58.30;;;;;;5053275;28;20437;-64
2022/05/13 12:14:48;;;;;;;2.43;1.40;;;23.50;57.90;;;;;;5053331;28;20436;-64
2022/05/13 12:17:21;;;;;;;2.40;1.40;;;23.30;58.70;;;;;;5053156;28;20528;-64
2022/05/13 12:19:56;;;;;;;4.30;1.93;;;23.30;58.60;;;;;;5052881;28;20498;-64
2022/05/13 12:22:48;;;;;;;2.90;2.13;;;23.10;58.90;;;;;;5053272;28;20436;-64
2022/05/13 12:25:45;;;;;;;2.87;1.80;;;22.90;59.40;;;;;;5052959;28;20481;-64
2022/05/13 12:28:23;;;;;;;3.43;2.27;;;22.70;60.10;;;;;;5050415;28;20456;-64
2022/05/13 12:30:53;;;;;;;3.80;1.90;;;22.60;60.90;;;;;;5053035;28;20441;-64
2022/05/13 12:33:38;;;;;;;3.33;2.20;;;22.50;61.70;;;;;;5052944;28;20527;-64
2022/05/13 12:39:12;;;;;;;2.87;1.80;;;22.30;62.80;;;;;;5053004;28;20543;-68
2022/05/13 12:42:06;;;;;;;5.13;1.90;;;22.20;63.20;;;;;;5052958;28;20519;-64
2022/05/13 12:44:40;;;;;;;3.00;1.80;;;22.10;64.10;;;;;;5052876;28;20476;-64
2022/05/13 12:47:28;;;;;;;3.77;1.70;;;22.10;66.10;;;;;;5052300;28;20530;-63
2022/05/13 12:50:01;;;;;;;3.17;1.77;;;22.00;66.80;;;;;;5052126;28;20523;-64
2022/05/13 12:52:39;;;;;;;2.83;1.40;;;22.10;67.50;;;;;;5052905;28;20451;-64
2022/05/13 12:55:12;;;;;;;5.43;2.07;;;22.10;67.40;;;;;;5052787;28;20524;-64
2022/05/13 12:57:43;;;;;;;2.53;1.53;;;22.10;67.30;;;;;;5052872;28;20444;-64
2022/05/13 13:00:14;;;;;;;2.70;1.73;;;22.00;66.50;;;;;;5052418;28;20502;-64
2022/05/13 13:02:44;;;;;;;2.70;1.67;;;22.00;66.90;;;;;;5052799;28;20804;-63
2022/05/13 13:05:20;;;;;;;3.53;1.70;;;21.90;66.10;;;;;;5052488;28;20481;-64
2022/05/13 13:07:47;;;;;;;2.27;1.20;;;21.90;66.20;;;;;;5052282;28;20444;-64
2022/05/13 13:10:18;;;;;;;2.80;1.70;;;21.70;66.90;;;;;;5052671;28;20440;-64
2022/05/13 13:12:57;;;;;;;2.83;1.90;;;21.70;67.00;;;;;;5052563;28;20447;-64
2022/05/13 13:15:27;;;;;;;3.10;2.40;;;21.70;68.30;;;;;;5052589;28;20444;-64
2022/05/13 13:17:58;;;;;;;3.30;1.87;;;21.60;68.20;;;;;;5052558;28;20441;-64
2022/05/13 13:20:29;;;;;;;3.10;2.10;;;21.50;68.20;;;;;;5052387;28;20494;-64
2022/05/13 13:23:00;;;;;;;2.50;1.73;;;21.50;68.40;;;;;;5052388;28;20947;-64
2022/05/13 13:25:30;;;;;;;3.07;2.07;;;21.40;68.40;;;;;;5052067;28;20571;-64
2022/05/13 13:28:00;;;;;;;4.43;1.90;;;21.30;69.40;;;;;;5052602;28;20483;-64
2022/05/13 13:30:28;;;;;;;3.03;2.10;;;21.30;70.10;;;;;;5054069;28;20528;-64
2022/05/13 13:32:57;;;;;;;3.30;2.07;;;21.30;70.40;;;;;;5055934;28;20461;-64